createdAt,value
2019-03-23T00:01:32.396Z,95762.64
2019-03-23T00:04:01.105Z,95753.72
2019-03-23T00:06:30.996Z,95759.51
2019-03-23T00:08:59.656Z,95756.41
2019-03-23T00:11:28.221Z,95751.72
2019-03-23T00:13:56.888Z,95753.92
2019-03-23T00:16:25.530Z,95754.78
2019-03-23T00:18:54.108Z,95746.02
2019-03-23T00:21:22.897Z,95742.47
2019-03-23T00:23:51.524Z,95736.92
2019-03-23T00:26:20.018Z,95744.45
2019-03-23T00:28:48.691Z,95741.02
2019-03-23T00:31:17.320Z,95736.98
2019-03-23T00:33:45.814Z,95736.38
2019-03-23T00:36:14.494Z,95736.03
2019-03-23T00:38:43.126Z,95738.81
2019-03-23T00:41:11.768Z,95732.06
2019-03-23T00:43:40.308Z,95730.64
2019-03-23T00:46:08.807Z,95724.72
2019-03-23T00:48:37.483Z,95726.89
2019-03-23T00:51:06.156Z,95726.43
2019-03-23T00:53:34.647Z,95722.53
2019-03-23T00:56:03.212Z,95723.58
2019-03-23T00:58:32.145Z,95716.05
2019-03-23T01:01:00.777Z,95717.27
2019-03-23T01:03:29.276Z,95719.30
2019-03-23T01:05:57.915Z,95710.38
2019-03-23T01:08:26.578Z,95711.31
2019-03-23T01:10:56.401Z,95700.84
2019-03-23T01:13:24.918Z,95701.13
2019-03-23T01:15:53.412Z,95701.25
2019-03-23T01:18:22.090Z,95698.56
2019-03-23T01:20:50.728Z,95690.45
2019-03-23T01:23:19.224Z,95697.00
2019-03-23T01:25:47.759Z,95706.19
2019-03-23T01:28:16.395Z,95692.58
2019-03-23T01:30:45.033Z,95696.55
2019-03-23T01:33:13.712Z,95697.91
2019-03-23T01:35:43.213Z,95695.89
2019-03-23T01:38:11.880Z,95698.09
2019-03-23T01:40:40.822Z,95694.05
2019-03-23T01:43:09.560Z,95683.41
2019-03-23T01:45:38.194Z,95684.98
2019-03-23T01:48:07.729Z,95679.06
2019-03-23T01:50:36.296Z,95673.72
2019-03-23T01:53:04.860Z,95664.79
2019-03-23T01:55:33.533Z,95658.09
2019-03-23T01:58:02.031Z,95669.91
2019-03-23T02:00:30.840Z,95655.53
2019-03-23T02:02:59.506Z,95651.69
2019-03-23T02:05:28.140Z,95647.80
2019-03-23T02:07:56.712Z,95643.77
2019-03-23T02:10:26.135Z,95634.14
2019-03-23T02:12:54.778Z,95634.73
2019-03-23T02:15:23.477Z,95633.69
2019-03-23T02:17:52.009Z,95627.02
2019-03-23T02:20:20.647Z,95636.50
2019-03-23T02:22:49.282Z,95638.93
2019-03-23T02:25:18.089Z,95643.83
2019-03-23T02:27:46.723Z,95646.12
2019-03-23T02:30:15.434Z,95642.80
2019-03-23T02:32:44.145Z,95650.65
2019-03-23T02:35:12.976Z,95653.00
2019-03-23T02:37:41.619Z,95660.53
2019-03-23T02:40:11.154Z,95662.19
2019-03-23T02:42:39.777Z,95663.12
2019-03-23T02:45:10.421Z,95665.73
2019-03-23T02:47:39.097Z,95667.66
2019-03-23T02:50:09.727Z,95667.66
2019-03-23T02:52:38.572Z,95660.23
2019-03-23T02:55:09.489Z,95663.27
2019-03-23T02:57:38.198Z,95672.88
2019-03-23T03:00:12.559Z,95664.37
2019-03-23T03:02:41.420Z,95656.16
2019-03-23T03:05:10.653Z,95658.16
2019-03-23T03:07:42.726Z,95664.58
2019-03-23T03:10:12.189Z,95665.25
2019-03-23T03:12:40.895Z,95665.73
2019-03-23T03:15:10.148Z,95657.97
2019-03-23T03:17:38.748Z,95667.05
2019-03-23T03:20:11.132Z,95666.79
2019-03-23T03:22:39.802Z,95670.14
2019-03-23T03:25:09.471Z,95674.17
2019-03-23T03:27:38.045Z,95675.92
2019-03-23T03:30:08.924Z,95671.37
2019-03-23T03:32:37.740Z,95691.09
2019-03-23T03:35:06.977Z,95685.47
2019-03-23T03:37:35.480Z,95687.11
2019-03-23T03:40:05.657Z,95690.31
2019-03-23T03:42:34.298Z,95689.54
2019-03-23T03:45:02.785Z,95684.78
2019-03-23T03:47:31.455Z,95691.52
2019-03-23T03:50:00.344Z,95687.95
2019-03-23T03:52:28.973Z,95689.55
2019-03-23T03:54:57.495Z,95689.94
2019-03-23T03:57:26.133Z,95686.40
2019-03-23T03:59:54.760Z,95684.85
2019-03-23T04:02:23.286Z,95692.39
2019-03-23T04:04:51.799Z,95687.16
2019-03-23T04:07:20.723Z,95696.16
2019-03-23T04:09:49.389Z,95698.16
2019-03-23T04:12:17.888Z,95694.80
2019-03-23T04:14:46.487Z,95702.09
2019-03-23T04:17:15.113Z,95697.36
2019-03-23T04:19:43.748Z,95692.24
2019-03-23T04:22:12.287Z,95694.14
2019-03-23T04:24:40.919Z,95687.92
2019-03-23T04:27:09.405Z,95694.84
2019-03-23T04:29:38.007Z,95687.62
2019-03-23T04:32:06.649Z,95696.70
2019-03-23T04:34:35.276Z,95693.91
2019-03-23T04:37:03.915Z,95691.75
2019-03-23T04:39:32.416Z,95687.25
2019-03-23T04:42:01.051Z,95686.81
2019-03-23T04:44:29.722Z,95693.84
2019-03-23T04:46:58.219Z,95691.16
2019-03-23T04:49:26.737Z,95691.24
2019-03-23T04:51:55.411Z,95694.36
2019-03-23T04:54:24.056Z,95693.83
2019-03-23T04:56:52.557Z,95693.42
2019-03-23T04:59:21.103Z,95692.05
2019-03-23T05:01:49.749Z,95692.58
2019-03-23T05:04:18.250Z,95693.97
2019-03-23T05:06:47.124Z,95693.46
2019-03-23T05:09:15.769Z,95704.87
2019-03-23T05:11:44.274Z,95701.42
2019-03-23T05:14:12.969Z,95699.83
2019-03-23T05:16:41.626Z,95688.43
2019-03-23T05:19:10.293Z,95697.61
2019-03-23T05:21:38.849Z,95706.73
2019-03-23T05:24:07.419Z,95710.53
2019-03-23T05:26:36.060Z,95713.23
2019-03-23T05:29:04.870Z,95706.84
2019-03-23T05:31:33.365Z,95713.03
2019-03-23T05:34:01.939Z,95722.64
2019-03-23T05:36:30.617Z,95717.92
2019-03-23T05:38:59.187Z,95725.51
2019-03-23T05:41:27.873Z,95724.03
2019-03-23T05:43:56.553Z,95718.81
2019-03-23T05:46:25.124Z,95727.13
2019-03-23T05:48:53.628Z,95706.27
2019-03-23T05:51:22.312Z,95722.87
2019-03-23T05:53:50.952Z,95716.20
2019-03-23T05:56:19.519Z,95724.05
2019-03-23T05:58:48.060Z,95721.03
2019-03-23T06:01:16.781Z,95721.59
2019-03-23T06:03:45.415Z,95720.16
2019-03-23T06:06:14.034Z,95725.28
2019-03-23T06:08:42.609Z,95716.88
2019-03-23T06:11:11.248Z,95710.39
2019-03-23T06:13:39.940Z,95714.12
2019-03-23T06:16:08.439Z,95712.98
2019-03-23T06:18:36.940Z,95709.31
2019-03-23T06:21:05.644Z,95708.55
2019-03-23T06:23:34.285Z,95708.95
2019-03-23T06:26:02.928Z,95704.22
2019-03-23T06:28:31.477Z,95695.27
2019-03-23T06:31:00.112Z,95696.14
2019-03-23T06:33:28.759Z,95698.08
2019-03-23T06:35:57.298Z,95692.84
2019-03-23T06:38:25.802Z,95682.98
2019-03-23T06:40:54.439Z,95675.50
2019-03-23T06:43:23.145Z,95681.85
2019-03-23T06:45:51.645Z,95684.80
2019-03-23T06:48:20.143Z,95676.29
2019-03-23T06:50:48.857Z,95688.22
2019-03-23T06:53:17.518Z,95687.77
2019-03-23T06:55:46.001Z,95684.73
2019-03-23T06:58:14.544Z,95691.98
2019-03-23T07:00:43.189Z,95700.19
2019-03-23T07:03:11.762Z,95702.01
2019-03-23T07:05:40.434Z,95698.55
2019-03-23T07:08:09.071Z,95697.19
2019-03-23T07:10:37.575Z,95697.59
2019-03-23T07:13:06.122Z,95690.90
2019-03-23T07:15:34.772Z,95687.95
2019-03-23T07:18:03.413Z,95686.64
2019-03-23T07:20:31.965Z,95682.16
2019-03-23T07:23:00.463Z,95680.37
2019-03-23T07:25:29.101Z,95674.55
2019-03-23T07:27:57.794Z,95671.98
2019-03-23T07:30:26.295Z,95679.37
2019-03-23T07:32:54.798Z,95676.58
2019-03-23T07:35:23.473Z,95677.52
2019-03-23T07:37:52.113Z,95675.94
2019-03-23T07:40:20.752Z,95670.49
2019-03-23T07:42:49.443Z,95668.38
2019-03-23T07:45:18.075Z,95665.28
2019-03-23T07:47:46.572Z,95664.61
2019-03-23T07:50:15.755Z,95665.37
2019-03-23T07:52:45.314Z,95664.30
2019-03-23T07:55:15.448Z,95658.41
2019-03-23T07:57:45.318Z,95650.25
2019-03-23T08:00:19.347Z,95653.91
2019-03-23T08:02:48.083Z,95647.34
2019-03-23T08:05:16.768Z,95653.09
2019-03-23T08:07:45.505Z,95652.88
2019-03-23T08:10:19.691Z,95653.96
2019-03-23T08:12:48.370Z,95652.01
2019-03-23T08:15:17.039Z,95650.42
2019-03-23T08:17:45.535Z,95651.31
2019-03-23T08:20:14.216Z,95642.11
2019-03-23T08:22:42.884Z,95638.11
2019-03-23T08:25:11.523Z,95631.31
2019-03-23T08:27:41.637Z,95628.66
2019-03-23T08:30:10.444Z,95621.50
2019-03-23T08:32:38.944Z,95619.34
2019-03-23T08:35:07.616Z,95619.10
2019-03-23T08:37:36.260Z,95616.80
2019-03-23T08:40:06.801Z,95612.77
2019-03-23T08:42:35.406Z,95614.86
2019-03-23T08:45:05.248Z,95609.86
2019-03-23T08:47:33.887Z,95611.13
2019-03-23T08:50:02.496Z,95612.41
2019-03-23T08:52:30.986Z,95606.06
2019-03-23T08:54:59.623Z,95603.01
2019-03-23T08:57:28.302Z,95601.38
2019-03-23T08:59:56.790Z,95598.06
2019-03-23T09:02:25.422Z,95592.16
2019-03-23T09:04:53.967Z,95589.73
2019-03-23T09:07:22.533Z,95583.28
2019-03-23T09:09:58.795Z,95582.48
2019-03-23T09:12:21.588Z,95579.88
2019-03-23T09:14:50.064Z,95571.84
2019-03-23T09:17:18.629Z,95570.80
2019-03-23T09:19:47.303Z,95577.90
2019-03-23T09:22:15.931Z,95572.73
2019-03-23T09:24:44.488Z,95576.10
2019-03-23T09:27:13.034Z,95581.78
2019-03-23T09:29:41.663Z,95578.39
2019-03-23T09:32:10.297Z,95574.17
2019-03-23T09:34:38.838Z,95575.00
2019-03-23T09:37:07.403Z,95578.25
2019-03-23T09:39:36.033Z,95574.48
2019-03-23T09:42:07.039Z,95565.53
2019-03-23T09:44:35.182Z,95558.63
2019-03-23T09:47:03.947Z,95561.81
2019-03-23T09:49:32.550Z,95554.05
2019-03-23T09:52:01.048Z,95555.44
2019-03-23T09:54:29.692Z,95549.03
2019-03-23T09:56:59.619Z,95546.45
2019-03-23T09:59:28.298Z,95540.43
2019-03-23T10:01:56.857Z,95549.69
2019-03-23T10:04:25.523Z,95547.42
2019-03-23T10:06:54.156Z,95544.28
2019-03-23T10:09:22.650Z,95537.41
2019-03-23T10:11:51.176Z,95545.13
2019-03-23T10:14:19.803Z,95542.00
2019-03-23T10:16:48.432Z,95539.28
2019-03-23T10:19:16.959Z,95540.39
2019-03-23T10:21:45.606Z,95540.72
2019-03-23T10:24:14.168Z,95536.55
2019-03-23T10:26:42.713Z,95535.45
2019-03-23T10:29:11.341Z,95529.79
2019-03-23T10:31:39.977Z,95529.27
2019-03-23T10:34:08.507Z,95526.45
2019-03-23T10:36:37.007Z,95528.98
2019-03-23T10:39:06.338Z,95523.04
2019-03-23T10:41:35.006Z,95513.80
2019-03-23T10:44:03.491Z,95501.02
2019-03-23T10:46:31.986Z,95504.55
2019-03-23T10:49:00.647Z,95502.86
2019-03-23T10:51:29.277Z,95496.94
2019-03-23T10:53:57.772Z,95497.73
2019-03-23T10:56:26.300Z,95491.91
2019-03-23T10:58:54.932Z,95492.80
2019-03-23T11:01:23.568Z,95482.91
2019-03-23T11:03:52.496Z,95467.59
2019-03-23T11:06:21.137Z,95475.91
2019-03-23T11:08:49.635Z,95472.21
2019-03-23T11:11:18.171Z,95468.41
2019-03-23T11:13:46.802Z,95449.94
2019-03-23T11:16:15.433Z,95451.81
2019-03-23T11:18:43.959Z,95449.95
2019-03-23T11:21:12.445Z,95447.36
2019-03-23T11:23:41.075Z,95443.21
2019-03-23T11:26:09.751Z,95452.04
2019-03-23T11:28:38.318Z,95448.10
2019-03-23T11:31:06.809Z,95440.38
2019-03-23T11:33:35.474Z,95435.37
2019-03-23T11:36:04.112Z,95431.45
2019-03-23T11:38:32.602Z,95428.42
2019-03-23T11:41:01.209Z,95418.84
2019-03-23T11:43:29.928Z,95405.80
2019-03-23T11:45:58.683Z,95407.38
2019-03-23T11:48:27.380Z,95410.02
2019-03-23T11:50:55.876Z,95408.25
2019-03-23T11:53:24.509Z,95401.52
2019-03-23T11:55:53.361Z,95400.41
2019-03-23T11:58:21.860Z,95391.85
2019-03-23T12:00:50.496Z,95390.71
2019-03-23T12:03:19.267Z,95384.77
2019-03-23T12:05:47.903Z,95385.59
2019-03-23T12:08:16.398Z,95380.06
2019-03-23T12:10:44.924Z,95378.89
2019-03-23T12:13:13.567Z,95372.67
2019-03-23T12:15:42.192Z,95363.48
2019-03-23T12:18:10.722Z,95359.73
2019-03-23T12:20:39.355Z,95359.87
2019-03-23T12:23:07.848Z,95350.59
2019-03-23T12:25:36.452Z,95346.95
2019-03-23T12:28:05.034Z,95342.88
2019-03-23T12:30:33.669Z,95339.29
2019-03-23T12:33:02.407Z,95333.67
2019-03-23T12:35:30.900Z,95334.42
2019-03-23T12:37:59.536Z,95333.84
2019-03-23T12:40:28.205Z,95332.39
2019-03-23T12:42:56.705Z,95336.14
2019-03-23T12:45:25.207Z,95332.84
2019-03-23T12:47:53.885Z,95329.41
2019-03-23T12:50:22.521Z,95331.94
2019-03-23T12:52:51.017Z,95322.45
2019-03-23T12:55:19.546Z,95322.19
2019-03-23T12:57:48.176Z,95316.03
2019-03-23T13:00:17.112Z,95313.88
2019-03-23T13:02:45.785Z,95306.04
2019-03-23T13:05:14.418Z,95308.38
2019-03-23T13:07:43.051Z,95306.80
2019-03-23T13:10:13.478Z,95295.80
2019-03-23T13:12:42.109Z,95299.52
2019-03-23T13:15:15.023Z,95296.14
2019-03-23T13:17:43.620Z,95289.56
2019-03-23T13:20:12.908Z,95292.36
2019-03-23T13:22:41.561Z,95283.68
2019-03-23T13:25:10.743Z,95277.27
2019-03-23T13:27:39.241Z,95280.25
2019-03-23T13:30:13.401Z,95271.24
2019-03-23T13:32:42.064Z,95269.56
2019-03-23T13:35:11.299Z,95266.94
2019-03-23T13:37:39.936Z,95264.21
2019-03-23T13:40:10.534Z,95263.38
2019-03-23T13:42:39.259Z,95260.78
2019-03-23T13:45:09.166Z,95261.34
2019-03-23T13:47:38.694Z,95250.03
2019-03-23T13:50:09.574Z,95252.45
2019-03-23T13:52:38.422Z,95245.95
2019-03-23T13:55:07.946Z,95245.19
2019-03-23T13:57:36.583Z,95243.39
2019-03-23T14:00:10.124Z,95239.89
2019-03-23T14:02:38.737Z,95233.47
2019-03-23T14:05:15.646Z,95237.23
2019-03-23T14:07:37.852Z,95234.30
2019-03-23T14:10:06.820Z,95232.91
2019-03-23T14:12:35.400Z,95231.41
2019-03-23T14:15:04.936Z,95227.51
2019-03-23T14:17:33.602Z,95224.83
2019-03-23T14:20:02.129Z,95234.00
2019-03-23T14:22:30.771Z,95235.64
2019-03-23T14:24:59.440Z,95225.41
2019-03-23T14:27:27.930Z,95219.73
2019-03-23T14:29:56.431Z,95219.36
2019-03-23T14:32:25.097Z,95223.40
2019-03-23T14:34:53.725Z,95232.10
2019-03-23T14:37:22.230Z,95216.33
2019-03-23T14:39:50.822Z,95221.14
2019-03-23T14:42:19.456Z,95220.51
2019-03-23T14:44:48.204Z,95223.16
2019-03-23T14:47:16.728Z,95223.91
2019-03-23T14:49:45.251Z,95219.14
2019-03-23T14:52:13.889Z,95230.11
2019-03-23T14:54:42.555Z,95214.84
2019-03-23T14:57:11.046Z,95210.30
2019-03-23T14:59:39.677Z,95213.09
2019-03-23T15:02:08.289Z,95210.92
2019-03-23T15:04:36.779Z,95205.89
2019-03-23T15:07:05.415Z,95211.55
2019-03-23T15:09:34.099Z,95206.13
2019-03-23T15:12:02.585Z,95211.43
2019-03-23T15:14:31.074Z,95218.39
2019-03-23T15:16:59.748Z,95214.98
2019-03-23T15:19:28.381Z,95208.80
2019-03-23T15:21:56.947Z,95208.02
2019-03-23T15:24:25.560Z,95206.91
2019-03-23T15:26:54.197Z,95210.95
2019-03-23T15:29:22.826Z,95216.36
2019-03-23T15:31:51.484Z,95211.70
2019-03-23T15:34:19.974Z,95212.83
2019-03-23T15:36:48.599Z,95218.72
2019-03-23T15:39:17.125Z,95229.05
2019-03-23T15:41:45.764Z,95216.95
2019-03-23T15:44:14.396Z,95225.27
2019-03-23T15:46:42.917Z,95228.13
2019-03-23T15:49:11.406Z,95214.26
2019-03-23T15:51:40.039Z,95218.53
2019-03-23T15:54:08.710Z,95226.86
2019-03-23T15:56:37.201Z,95221.94
2019-03-23T15:59:05.773Z,95213.70
2019-03-23T16:01:35.548Z,95237.89
2019-03-23T16:04:04.188Z,95234.59
2019-03-23T16:06:32.681Z,95231.16
2019-03-23T16:09:01.275Z,95229.53
2019-03-23T16:11:29.908Z,95231.40
2019-03-23T16:13:58.541Z,95233.89
2019-03-23T16:16:27.083Z,95231.80
2019-03-23T16:18:55.723Z,95235.91
2019-03-23T16:21:24.213Z,95229.84
2019-03-23T16:23:52.748Z,95231.93
2019-03-23T16:26:21.382Z,95241.48
2019-03-23T16:28:50.085Z,95237.80
2019-03-23T16:31:18.609Z,95240.91
2019-03-23T16:33:47.108Z,95251.58
2019-03-23T16:36:15.742Z,95246.27
2019-03-23T16:38:44.609Z,95251.44
2019-03-23T16:41:13.098Z,95260.73
2019-03-23T16:43:41.589Z,95258.66
2019-03-23T16:46:10.265Z,95258.34
2019-03-23T16:48:38.972Z,95258.69
2019-03-23T16:51:07.468Z,95260.92
2019-03-23T16:53:36.022Z,95257.21
2019-03-23T16:56:04.629Z,95264.13
2019-03-23T16:58:33.267Z,95257.50
2019-03-23T17:01:01.860Z,95255.91
2019-03-23T17:03:30.361Z,95260.19
2019-03-23T17:05:59.084Z,95257.72
2019-03-23T17:08:27.750Z,95259.80
2019-03-23T17:10:56.352Z,95259.33
2019-03-23T17:13:24.976Z,95263.53
2019-03-23T17:15:53.669Z,95264.91
2019-03-23T17:18:22.295Z,95263.09
2019-03-23T17:20:50.784Z,95272.55
2019-03-23T17:23:19.410Z,95272.77
2019-03-23T17:25:48.044Z,95274.44
2019-03-23T17:28:16.674Z,95277.78
2019-03-23T17:30:45.204Z,95274.06
2019-03-23T17:33:13.696Z,95280.78
2019-03-23T17:35:42.329Z,95284.16
2019-03-23T17:38:10.869Z,95277.31
2019-03-23T17:40:39.518Z,95287.62
2019-03-23T17:43:08.151Z,95293.89
2019-03-23T17:45:37.790Z,95293.34
2019-03-23T17:48:06.428Z,95290.66
2019-03-23T17:50:35.122Z,95289.40
2019-03-23T17:53:03.792Z,95293.05
2019-03-23T17:55:32.292Z,95293.59
2019-03-23T17:58:00.851Z,95297.94
2019-03-23T18:00:30.297Z,95304.23
2019-03-23T18:02:59.181Z,95304.30
2019-03-23T18:05:27.741Z,95303.33
2019-03-23T18:07:56.358Z,95299.91
2019-03-23T18:10:24.987Z,95308.43
2019-03-23T18:12:53.627Z,95306.16
2019-03-23T18:15:22.160Z,95307.79
2019-03-23T18:17:51.329Z,95307.41
2019-03-23T18:20:19.865Z,95309.60
2019-03-23T18:22:48.401Z,95302.80
2019-03-23T18:25:17.036Z,95299.49
2019-03-23T18:27:45.666Z,95311.80
2019-03-23T18:30:34.408Z,95308.77
2019-03-23T18:33:03.467Z,95309.42
2019-03-23T18:35:32.108Z,95313.91
2019-03-23T18:38:01.095Z,95306.89
2019-03-23T18:40:29.825Z,95314.13
2019-03-23T18:42:58.381Z,95318.95
2019-03-23T18:45:27.352Z,95320.98
2019-03-23T18:47:55.986Z,95316.45
2019-03-23T18:50:24.625Z,95317.12
2019-03-23T18:52:54.419Z,95323.80
2019-03-23T18:55:23.067Z,95323.03
2019-03-23T18:57:52.006Z,95321.23
2019-03-23T19:00:35.581Z,95323.98
2019-03-23T19:03:04.213Z,95327.33
2019-03-23T19:05:32.777Z,95317.53
2019-03-23T19:08:01.352Z,95325.21
2019-03-23T19:10:29.985Z,95322.66
2019-03-23T19:12:58.666Z,95326.83
2019-03-23T19:15:27.309Z,95323.61
2019-03-23T19:17:55.940Z,95324.94
2019-03-23T19:20:24.796Z,95323.17
2019-03-23T19:22:53.493Z,95322.01
2019-03-23T19:25:21.992Z,95328.57
2019-03-23T19:27:50.751Z,95334.91
2019-03-23T19:30:19.798Z,95343.98
2019-03-23T19:32:48.435Z,95339.73
2019-03-23T19:35:16.979Z,95340.26
2019-03-23T19:37:45.652Z,95350.22
2019-03-23T19:40:15.192Z,95354.03
2019-03-23T19:42:43.799Z,95349.95
2019-03-23T19:45:12.443Z,95358.22
2019-03-23T19:47:41.128Z,95362.98
2019-03-23T19:50:10.519Z,95353.97
2019-03-23T19:52:39.103Z,95362.20
2019-03-23T19:55:08.439Z,95353.05
2019-03-23T19:57:37.117Z,95354.75
2019-03-23T20:00:08.662Z,95357.95
2019-03-23T20:02:37.306Z,95358.56
2019-03-23T20:05:07.082Z,95353.06
2019-03-23T20:07:35.723Z,95362.08
2019-03-23T20:10:06.765Z,95364.36
2019-03-23T20:12:35.311Z,95357.65
2019-03-23T20:15:05.864Z,95362.67
2019-03-23T20:17:34.363Z,95358.25
2019-03-23T20:20:03.497Z,95360.22
2019-03-23T20:22:32.142Z,95365.42
2019-03-23T20:25:00.653Z,95364.96
2019-03-23T20:27:29.180Z,95362.50
2019-03-23T20:29:57.814Z,95364.95
2019-03-23T20:32:26.471Z,95364.79
2019-03-23T20:34:55.078Z,95369.67
2019-03-23T20:37:23.583Z,95368.47
2019-03-23T20:39:52.223Z,95363.27
2019-03-23T20:42:20.899Z,95368.61
2019-03-23T20:44:49.404Z,95370.44
2019-03-23T20:47:17.976Z,95369.66
2019-03-23T20:49:47.317Z,95367.37
2019-03-23T20:52:15.954Z,95365.25
2019-03-23T20:54:44.587Z,95370.10
2019-03-23T20:57:23.191Z,95365.51
2019-03-23T20:59:43.860Z,95366.27
2019-03-23T21:02:12.358Z,95372.67
2019-03-23T21:04:41.030Z,95378.42
2019-03-23T21:07:09.669Z,95376.13
2019-03-23T21:09:38.178Z,95373.83
2019-03-23T21:12:06.807Z,95377.64
2019-03-23T21:14:35.444Z,95373.95
2019-03-23T21:17:04.081Z,95379.58
2019-03-23T21:19:32.631Z,95374.99
2019-03-23T21:22:01.135Z,95378.06
2019-03-23T21:24:29.771Z,95380.95
2019-03-23T21:26:58.441Z,95378.81
2019-03-23T21:29:27.024Z,95373.93
2019-03-23T21:31:55.518Z,95376.48
2019-03-23T21:34:24.383Z,95375.83
2019-03-23T21:36:52.891Z,95382.55
2019-03-23T21:39:21.456Z,95379.31
2019-03-23T21:41:50.133Z,95376.08
2019-03-23T21:44:18.635Z,95376.61
2019-03-23T21:46:47.134Z,95376.28
2019-03-23T21:49:15.804Z,95370.59
2019-03-23T21:51:44.429Z,95375.27
2019-03-23T21:54:12.927Z,95374.95
2019-03-23T21:56:41.509Z,95376.14
2019-03-23T21:59:10.142Z,95381.66
2019-03-23T22:01:38.801Z,95379.81
2019-03-23T22:04:07.364Z,95383.42
2019-03-23T22:06:35.857Z,95383.30
2019-03-23T22:09:06.290Z,95379.95
2019-03-23T22:11:35.172Z,95387.97
2019-03-23T22:14:03.739Z,95390.06
2019-03-23T22:16:32.309Z,95392.59
2019-03-23T22:19:00.980Z,95394.56
2019-03-23T22:21:29.616Z,95389.97
2019-03-23T22:23:58.111Z,95396.66
2019-03-23T22:26:26.650Z,95403.38
2019-03-23T22:28:55.281Z,95406.66
2019-03-23T22:31:23.917Z,95409.09
2019-03-23T22:33:52.478Z,95414.95
2019-03-23T22:36:20.980Z,95411.93
2019-03-23T22:38:49.611Z,95424.48
2019-03-23T22:41:18.274Z,95434.89
2019-03-23T22:43:46.810Z,95434.64
2019-03-23T22:46:15.393Z,95428.46
2019-03-23T22:48:44.068Z,95432.27
2019-03-23T22:51:12.710Z,95435.59
2019-03-23T22:53:41.201Z,95439.89
2019-03-23T22:56:09.874Z,95443.69
2019-03-23T22:58:38.436Z,95441.09
2019-03-23T23:01:07.062Z,95442.08
2019-03-23T23:03:35.722Z,95447.55
2019-03-23T23:06:04.465Z,95447.98
2019-03-23T23:08:32.960Z,95442.20
2019-03-23T23:11:01.496Z,95451.78
2019-03-23T23:13:30.122Z,95449.05
2019-03-23T23:15:58.756Z,95456.91
2019-03-23T23:18:27.352Z,95449.98
2019-03-23T23:20:56.316Z,95456.29
2019-03-23T23:23:24.961Z,95459.28
2019-03-23T23:25:53.638Z,95458.48
2019-03-23T23:28:22.229Z,95447.03
2019-03-23T23:30:50.794Z,95453.30
2019-03-23T23:33:19.639Z,95458.66
2019-03-23T23:35:48.138Z,95430.06
2019-03-23T23:38:16.770Z,95439.70
2019-03-23T23:40:45.443Z,95441.10
2019-03-23T23:43:13.932Z,95436.90
2019-03-23T23:45:42.504Z,95434.52
2019-03-23T23:48:11.180Z,95434.97
2019-03-23T23:50:39.818Z,95431.64
2019-03-23T23:53:08.317Z,95427.13
2019-03-23T23:55:36.858Z,95429.72
2019-03-23T23:58:05.707Z,95419.70
